Time;durP1;ratioP1;P1;durP2;ratioP2;P2;SDS_P1;SDS_P2;PMS_P1;PMS_P2;Temp;Humidity;BMP_temperature;BMP_pressure;BME280_temperature;BME280_humidity;BME280_pressure;Samples;Min_cycle;Max_cycle;Signal;HPM_P1;HPM_P2
2023/01/16 05:00:31;;;;;;;24.92;17.02;;;;;;;7.09;93.46;99596.59;5618826;31;84976;-57
2023/01/16 05:03:34;;;;;;;24.67;17.30;;;;;;;6.99;95.31;99592.13;5601079;31;33363;-57
2023/01/16 05:06:36;;;;;;;25.35;16.90;;;;;;;7.15;91.98;99590.13;5582341;31;33610;-58
2023/01/16 05:09:38;;;;;;;25.92;17.55;;;;;;;7.14;92.27;99589.34;5583707;32;33389;-57
2023/01/16 05:12:40;;;;;;;22.37;16.05;;;;;;;7.11;92.27;99579.22;5574884;31;34255;-57
2023/01/16 05:15:44;;;;;;;23.75;16.02;;;;;;;7.14;92.00;99577.88;5582107;32;33100;-57
2023/01/16 05:18:46;;;;;;;24.12;15.88;;;;;;;7.22;90.65;99567.44;5583256;31;33706;-57
2023/01/16 05:21:49;;;;;;;27.37;17.67;;;;;;;7.23;91.09;99570.91;5580741;31;33615;-57
2023/01/16 05:24:51;;;;;;;23.48;16.12;;;;;;;7.14;97.59;99573.34;5564081;32;33561;-57
2023/01/16 05:27:53;;;;;;;24.37;17.35;;;;;;;7.25;93.19;99584.75;5564234;32;33781;-57
2023/01/16 05:30:56;;;;;;;22.90;16.67;;;;;;;7.19;95.50;99577.88;5563910;32;33697;-57
2023/01/16 05:33:58;;;;;;;23.35;17.33;;;;;;;7.28;92.19;99584.19;5563899;32;34332;-58
2023/01/16 05:37:00;;;;;;;24.85;17.73;;;;;;;7.30;94.33;99579.38;5563845;32;33712;-57
2023/01/16 05:40:03;;;;;;;24.23;17.37;;;;;;;7.30;93.53;99576.72;5563997;32;34289;-57
2023/01/16 05:43:05;;;;;;;23.85;17.48;;;;;;;7.42;92.50;99576.38;5572712;32;33749;-58
2023/01/16 05:46:08;;;;;;;28.98;18.40;;;;;;;7.46;90.81;99583.53;5583564;32;34378;-58
2023/01/16 05:49:11;;;;;;;24.42;17.55;;;;;;;7.52;90.47;99582.41;5570177;32;33662;-57
2023/01/16 05:52:13;;;;;;;23.87;18.52;;;;;;;7.42;90.43;99573.72;5582046;31;34340;-57
2023/01/16 05:55:16;;;;;;;24.30;18.55;;;;;;;7.58;89.85;99571.69;5583489;31;33634;-57
2023/01/16 05:58:19;;;;;;;25.75;17.92;;;;;;;7.73;89.22;99571.56;5581835;31;33535;-57
2023/01/16 06:01:21;;;;;;;23.90;17.92;;;;;;;7.70;89.07;99564.91;5582597;31;34288;-57
2023/01/16 06:04:24;;;;;;;24.85;18.48;;;;;;;7.62;89.10;99575.41;5582161;32;33714;-57
2023/01/16 06:07:26;;;;;;;27.20;18.52;;;;;;;7.60;90.10;99577.56;5579454;32;34190;-57
2023/01/16 06:10:28;;;;;;;27.55;18.40;;;;;;;7.54;89.25;99577.59;5553664;32;34196;-57
2023/01/16 06:13:31;;;;;;;24.67;18.52;;;;;;;7.44;91.20;99572.34;5553127;32;34250;-57
2023/01/16 06:16:34;;;;;;;27.08;19.02;;;;;;;7.57;89.61;99567.44;5549662;32;33717;-57
2023/01/16 06:19:37;;;;;;;26.67;18.98;;;;;;;7.55;90.28;99570.41;5562583;32;34160;-59
2023/01/16 06:22:39;;;;;;;26.62;19.52;;;;;;;7.43;91.08;99576.09;5568230;32;33720;-58
2023/01/16 06:25:42;;;;;;;29.52;20.58;;;;;;;7.31;99.39;99572.97;5548915;32;32593;-58
2023/01/16 06:28:44;;;;;;;32.28;20.23;;;;;;;7.37;96.56;99568.41;5549950;32;34354;-57
2023/01/16 06:31:46;;;;;;;28.62;21.58;;;;;;;7.47;100.00;99568.31;5559828;32;34576;-57
2023/01/16 06:34:49;;;;;;;29.83;19.35;;;;;;;7.52;97.42;99558.41;5550354;32;34137;-57
2023/01/16 06:37:51;;;;;;;37.70;25.08;;;;;;;7.49;93.59;99552.84;5550962;32;33761;-57
2023/01/16 06:40:55;;;;;;;35.80;23.20;;;;;;;7.47;93.03;99561.13;5549941;32;33553;-57
2023/01/16 06:43:58;;;;;;;35.30;24.58;;;;;;;7.65;93.06;99556.16;5557107;32;33625;-57
2023/01/16 06:47:01;;;;;;;36.08;23.00;;;;;;;7.96;100.00;99551.34;5552933;32;33729;-57
2023/01/16 06:50:04;;;;;;;34.47;24.05;;;;;;;8.28;100.00;99545.38;5553834;32;33667;-57
2023/01/16 06:53:06;;;;;;;33.35;23.58;;;;;;;8.11;89.29;99558.37;5545963;32;33725;-57
2023/01/16 06:56:09;;;;;;;34.50;23.38;;;;;;;7.87;92.34;99543.16;5554787;32;34514;-58
2023/01/16 06:59:11;;;;;;;38.95;24.02;;;;;;;7.88;95.25;99546.59;5549364;32;32176;-57
2023/01/16 07:02:13;;;;;;;34.75;23.50;;;;;;;7.92;90.76;99551.13;5564693;32;33822;-58
2023/01/16 07:05:16;;;;;;;33.10;22.92;;;;;;;7.89;86.76;99551.69;5551264;32;34357;-57
2023/01/16 07:08:21;;;;;;;30.90;22.25;;;;;;;7.77;88.57;99548.59;5552881;32;33715;-57
2023/01/16 07:11:23;;;;;;;32.22;22.48;;;;;;;7.90;98.98;99547.12;5549438;32;33679;-57
2023/01/16 07:24:38;;;;;;;37.40;23.48;;;;;;;7.86;92.02;99556.78;5561794;32;34341;-57
2023/01/16 07:27:45;;;;;;;32.08;21.87;;;;;;;7.93;100.00;99551.91;5568489;32;33776;-57
2023/01/16 07:30:49;;;;;;;31.60;22.48;;;;;;;7.92;90.38;99539.66;5568395;32;33610;-57
2023/01/16 07:33:51;;;;;;;29.95;20.70;;;;;;;7.89;88.92;99538.31;5554065;32;34309;-58
2023/01/16 07:36:54;;;;;;;31.33;22.20;;;;;;;7.79;90.17;99533.09;5549568;32;33666;-57
2023/01/16 07:39:56;;;;;;;33.78;22.00;;;;;;;7.96;87.64;99536.13;5567404;32;33646;-57
2023/01/16 07:42:58;;;;;;;35.70;22.65;;;;;;;7.75;88.32;99519.53;5565664;32;34466;-58
2023/01/16 07:46:00;;;;;;;31.80;21.83;;;;;;;7.71;87.93;99504.34;5567864;32;33534;-57
2023/01/16 07:49:03;;;;;;;30.90;21.40;;;;;;;7.67;97.21;99498.00;5567726;32;34375;-58
2023/01/16 07:52:05;;;;;;;31.15;21.17;;;;;;;7.87;100.00;99497.00;5563539;32;34561;-57
2023/01/16 07:55:08;;;;;;;29.92;20.12;;;;;;;8.03;97.58;99493.06;5557749;32;34366;-57
2023/01/16 07:58:13;;;;;;;32.50;21.37;;;;;;;8.33;100.00;99480.44;5548825;32;34255;-57
2023/01/16 08:01:15;;;;;;;26.62;20.10;;;;;;;8.25;100.00;99476.53;5556034;32;33711;-57
2023/01/16 08:04:18;;;;;;;20.90;15.00;;;;;;;8.61;100.00;99476.06;5559902;32;34296;-57
2023/01/16 08:07:20;;;;;;;20.90;15.02;;;;;;;8.47;84.58;99463.44;5549954;32;33744;-57
2023/01/16 08:10:22;;;;;;;20.55;15.77;;;;;;;8.40;95.76;99463.00;5549120;32;33702;-57
2023/01/16 08:13:25;;;;;;;22.83;15.95;;;;;;;8.59;99.96;99459.56;5551112;32;33579;-57
2023/01/16 08:16:28;;;;;;;24.20;16.52;;;;;;;8.56;92.53;99446.78;5556097;32;34298;-57
2023/01/16 08:19:30;;;;;;;30.45;18.17;;;;;;;8.72;87.46;99439.34;5547463;32;33767;-58
2023/01/16 08:22:33;;;;;;;22.77;15.80;;;;;;;8.50;88.22;99429.22;5564158;32;33669;-58
2023/01/16 08:25:35;;;;;;;22.83;16.62;;;;;;;8.72;97.05;99431.31;5566908;32;33593;-57
2023/01/16 08:28:37;;;;;;;26.42;17.17;;;;;;;8.86;100.00;99430.25;5553657;32;33855;-57
2023/01/16 08:31:40;;;;;;;24.20;17.08;;;;;;;8.65;88.37;99421.00;5561652;32;33728;-57
2023/01/16 08:34:42;;;;;;;27.13;17.83;;;;;;;8.54;84.29;99417.66;5567608;32;33523;-57
2023/01/16 08:37:49;;;;;;;24.30;17.15;;;;;;;8.45;84.92;99417.53;5568502;32;33720;-58
2023/01/16 08:40:51;;;;;;;25.98;17.98;;;;;;;8.34;98.08;99415.25;5567869;32;33706;-57
2023/01/16 08:54:08;;;;;;;24.73;18.07;;;;;;;8.53;94.64;99385.91;5548594;32;33662;-57
2023/01/16 08:57:10;;;;;;;27.50;18.45;;;;;;;8.42;89.70;99370.03;5548668;32;34365;-57
2023/01/16 09:00:13;;;;;;;25.45;17.77;;;;;;;8.49;86.09;99361.66;5547787;32;33607;-57
2023/01/16 09:03:19;;;;;;;27.23;18.70;;;;;;;8.38;92.32;99357.56;5558809;32;33762;-58
2023/01/16 09:06:22;;;;;;;25.30;18.10;;;;;;;8.34;89.34;99351.16;5549309;32;33694;-58
2023/01/16 09:09:25;;;;;;;27.75;17.95;;;;;;;8.52;93.00;99346.94;5548016;32;33743;-58
2023/01/16 09:15:49;;;;;;;26.85;18.50;;;;;;;8.24;84.37;99323.56;5561749;32;33687;-57
2023/01/16 09:18:52;;;;;;;27.35;18.83;;;;;;;8.23;99.60;99311.28;5557546;32;34373;-57
2023/01/16 09:21:54;;;;;;;29.37;18.92;;;;;;;8.42;99.63;99308.59;5563029;32;33755;-57
2023/01/16 09:24:56;;;;;;;29.75;19.00;;;;;;;8.36;89.69;99304.41;5557974;32;33712;-57
2023/01/16 09:27:59;;;;;;;27.17;18.80;;;;;;;8.25;86.24;99289.63;5560940;32;34371;-57
2023/01/16 09:31:02;;;;;;;28.87;19.52;;;;;;;8.36;95.07;99279.56;5566997;32;34302;-58
2023/01/16 09:34:04;;;;;;;28.02;19.70;;;;;;;8.21;92.00;99283.28;5566516;32;34230;-57
2023/01/16 09:37:07;;;;;;;31.35;19.87;;;;;;;8.41;99.59;99276.84;5555990;32;33638;-58
2023/01/16 09:40:27;;;;;;;28.52;19.80;;;;;;;8.43;93.53;99258.66;5547705;32;34354;-57
2023/01/16 09:43:40;;;;;;;29.45;20.02;;;;;;;8.24;89.43;99259.47;5547381;32;34380;-57
2023/01/16 09:46:50;;;;;;;32.40;20.67;;;;;;;8.21;86.23;99238.69;5561694;32;33680;-57
2023/01/16 09:50:03;;;;;;;33.42;21.80;;;;;;;8.35;100.00;99236.06;5549670;32;34357;-58
2023/01/16 10:00:04;;;;;;;30.88;20.55;;;;;;;8.55;95.94;99200.22;5549093;32;33213;-58
2023/01/16 10:03:11;;;;;;;34.85;21.62;;;;;;;8.40;87.50;99193.25;5547938;32;35151;-57
2023/01/16 10:06:27;;;;;;;35.42;21.27;;;;;;;8.45;90.05;99187.84;5553081;32;34010;-57
2023/01/16 10:09:58;;;;;;;34.97;22.27;;;;;;;8.40;92.49;99187.13;5569079;32;34337;-57
2023/01/16 10:13:12;;;;;;;33.63;21.33;;;;;;;8.70;87.99;99191.91;5539146;32;33652;-58
2023/01/16 10:16:44;;;;;;;31.60;20.48;;;;;;;8.64;89.10;99182.44;5550495;32;34241;-57
2023/01/16 10:19:53;;;;;;;36.35;22.58;;;;;;;8.70;92.79;99167.06;5549797;32;34232;-57
2023/01/16 10:23:06;;;;;;;36.50;21.70;;;;;;;8.60;90.62;99162.72;5567598;32;34391;-57
2023/01/16 10:26:22;;;;;;;37.45;23.45;;;;;;;8.69;87.93;99144.91;5564222;32;34452;-58
2023/01/16 10:29:53;;;;;;;36.17;22.27;;;;;;;8.34;88.84;99132.19;5567837;32;33794;-57
2023/01/16 10:33:22;;;;;;;35.58;23.23;;;;;;;8.21;87.25;99129.25;5563501;32;33622;-57
2023/01/16 10:36:30;;;;;;;39.28;23.15;;;;;;;8.52;92.75;99118.00;5553924;32;34356;-57
2023/01/16 10:39:36;;;;;;;39.00;22.92;;;;;;;8.49;97.82;99120.50;5549918;32;33732;-58
2023/01/16 10:49:52;;;;;;;36.10;22.42;;;;;;;8.79;89.72;99111.84;5560785;32;34344;-57
2023/01/16 10:52:54;;;;;;;40.00;24.20;;;;;;;8.84;91.96;99098.41;5567809;32;32533;-57
2023/01/16 10:55:56;;;;;;;36.05;22.62;;;;;;;8.82;85.40;99087.22;5567623;32;34475;-58
2023/01/16 10:58:59;;;;;;;36.33;22.42;;;;;;;8.86;90.17;99077.50;5568411;32;33648;-57
2023/01/16 11:02:15;;;;;;;36.38;23.95;;;;;;;8.92;85.87;99064.81;5568018;32;33988;-58
2023/01/16 11:05:34;;;;;;;39.33;23.40;;;;;;;8.78;86.10;99061.41;5563968;32;33596;-57
2023/01/16 11:08:36;;;;;;;35.97;22.90;;;;;;;8.73;86.77;99048.13;5564316;32;32451;-58
2023/01/16 11:18:29;;;;;;;35.95;23.23;;;;;;;8.57;93.83;99029.75;5566837;32;34438;-57
2023/01/16 11:21:32;;;;;;;35.38;22.40;;;;;;;8.57;88.30;99018.28;5567668;32;34474;-57
2023/01/16 11:24:38;;;;;;;36.67;23.42;;;;;;;8.43;87.55;99018.31;5567552;32;33593;-57
2023/01/16 11:27:41;;;;;;;34.67;21.70;;;;;;;8.58;88.80;99006.53;5566047;32;33718;-57
2023/01/16 11:30:51;;;;;;;36.55;21.55;;;;;;;8.75;88.67;98995.97;5566364;32;33688;-56
2023/01/16 11:34:01;;;;;;;35.38;21.80;;;;;;;8.69;95.61;99005.97;5549589;32;33713;-57
2023/01/16 11:37:07;;;;;;;34.28;21.12;;;;;;;8.86;87.89;99000.00;5549846;32;34040;-58
2023/01/16 11:40:20;;;;;;;37.15;22.37;;;;;;;8.80;84.35;98989.72;5556957;32;33631;-57
2023/01/16 11:46:49;;;;;;;37.22;22.83;;;;;;;8.32;86.57;98964.28;5548465;32;33713;-57
2023/01/16 11:49:53;;;;;;;34.88;21.33;;;;;;;8.52;94.42;98971.09;5548108;32;33641;-57
2023/01/16 11:52:55;;;;;;;34.85;21.37;;;;;;;8.68;93.59;98960.88;5559433;32;33339;-57
2023/01/16 11:56:30;;;;;;;37.28;22.35;;;;;;;8.64;93.98;98952.69;5553399;32;34565;-57
2023/01/16 12:00:00;;;;;;;37.53;22.33;;;;;;;8.43;92.48;98941.66;5550996;31;33699;-58
2023/01/16 12:03:20;;;;;;;34.67;21.98;;;;;;;8.72;100.00;98937.03;5561550;32;34467;-57
2023/01/16 12:06:48;;;;;;;39.15;23.40;;;;;;;8.59;97.71;98927.97;5555101;32;34395;-57
2023/01/16 12:10:04;;;;;;;34.35;21.92;;;;;;;8.33;87.16;98917.81;5557796;32;33767;-56
2023/01/16 12:17:14;;;;;;;35.00;22.25;;;;;;;8.46;99.72;98892.97;5563306;32;33706;-57
2023/01/16 12:20:16;;;;;;;37.20;22.62;;;;;;;8.32;87.71;98883.41;5542332;32;33531;-57
2023/01/16 12:23:47;;;;;;;35.38;22.90;;;;;;;8.27;93.02;98876.28;5567546;32;33500;-57
2023/01/16 12:27:15;;;;;;;36.70;22.35;;;;;;;8.23;88.78;98867.31;5559698;32;34502;-58
2023/01/16 12:30:38;;;;;;;38.35;22.80;;;;;;;8.33;96.44;98867.06;5548698;32;34260;-57
2023/01/16 12:34:13;;;;;;;31.05;19.62;;;;;;;8.47;90.82;98859.03;5548548;32;34992;-58
2023/01/16 12:37:37;;;;;;;32.65;20.00;;;;;;;8.66;96.83;98848.19;5566936;32;34348;-57
2023/01/16 12:40:50;;;;;;;35.78;21.90;;;;;;;8.61;91.72;98835.75;5559280;32;33693;-57
2023/01/16 12:44:16;;;;;;;35.05;21.62;;;;;;;8.37;86.15;98829.88;5562552;32;33446;-56
2023/01/16 12:47:41;;;;;;;36.67;22.10;;;;;;;8.53;92.33;98823.12;5557231;32;33932;-56
2023/01/16 12:50:50;;;;;;;33.97;21.55;;;;;;;8.36;88.61;98818.41;5548299;32;33680;-57
2023/01/16 12:54:14;;;;;;;36.10;22.62;;;;;;;8.29;96.12;98811.94;5548654;32;33736;-57
2023/01/16 12:57:54;;;;;;;39.05;22.95;;;;;;;8.22;89.74;98807.00;5554233;32;33882;-57
2023/01/16 13:01:07;;;;;;;36.72;22.75;;;;;;;8.03;86.92;98803.72;5536677;32;33706;-57
2023/01/16 13:04:21;;;;;;;37.38;22.85;;;;;;;8.23;100.00;98805.91;5548229;32;34311;-57
2023/01/16 13:07:31;;;;;;;44.65;25.10;;;;;;;8.30;98.29;98805.50;5548038;32;33933;-58
2023/01/16 13:14:02;;;;;;;38.38;24.40;;;;;;;7.96;90.58;98788.13;5548782;32;34626;-57
2023/01/16 13:17:17;;;;;;;37.42;24.42;;;;;;;8.00;89.65;98787.19;5548161;32;33336;-56
2023/01/16 13:20:32;;;;;;;38.00;25.40;;;;;;;8.13;98.52;98774.91;5548809;32;33721;-56
2023/01/16 13:23:45;;;;;;;42.65;27.20;;;;;;;8.34;100.00;98775.19;5550529;32;33613;-57
2023/01/16 13:27:01;;;;;;;39.83;25.98;;;;;;;8.45;96.90;98770.44;5550303;32;33669;-57
2023/01/16 13:30:10;;;;;;;39.20;26.77;;;;;;;8.24;95.08;98775.44;5550098;32;34404;-56
2023/01/16 13:33:18;;;;;;;37.33;25.75;;;;;;;8.45;92.52;98776.56;5550355;32;34340;-57
2023/01/16 13:36:49;;;;;;;41.58;27.08;;;;;;;8.35;97.05;98773.34;5550043;32;33616;-56
2023/01/16 13:40:01;;;;;;;40.67;27.05;;;;;;;8.27;91.35;98776.72;5550415;32;33703;-57
2023/01/16 13:46:36;;;;;;;39.13;25.55;;;;;;;7.98;92.07;98784.06;5550425;32;33327;-57
2023/01/16 13:49:39;;;;;;;37.60;26.65;;;;;;;7.82;98.58;98780.16;5550475;32;33398;-57
2023/01/16 13:52:43;;;;;;;41.78;27.35;;;;;;;7.88;90.66;98778.16;5551847;32;34630;-57
2023/01/16 13:55:46;;;;;;;40.35;27.10;;;;;;;7.98;97.52;98772.59;5558839;32;33842;-57
2023/01/16 13:59:02;;;;;;;38.40;26.35;;;;;;;7.91;91.89;98767.69;5565672;32;33843;-56
2023/01/16 14:02:39;;;;;;;40.28;26.30;;;;;;;8.37;100.00;98763.12;5559032;32;33695;-56
2023/01/16 14:05:44;;;;;;;38.75;26.58;;;;;;;8.52;96.53;98760.13;5561312;32;32873;-58
2023/01/16 14:09:05;;;;;;;38.83;25.42;;;;;;;8.16;87.88;98758.28;5570104;32;34419;-57
2023/01/16 14:12:23;;;;;;;37.10;24.92;;;;;;;7.99;87.78;98753.59;5569880;32;33649;-57
2023/01/16 14:18:47;;;;;;;38.13;25.83;;;;;;;8.06;95.99;98742.50;5569252;32;33809;-57
2023/01/16 14:25:22;;;;;;;120.07;27.90;;;;;;;8.09;90.13;98725.91;5569855;32;33568;-57
2023/01/16 14:28:26;;;;;;;34.35;22.98;;;;;;;8.05;89.95;98716.94;5569372;32;34488;-56
2023/01/16 14:31:52;;;;;;;39.85;24.30;;;;;;;8.09;87.17;98707.22;5568767;32;33813;-57
2023/01/16 14:34:58;;;;;;;37.70;24.90;;;;;;;7.99;87.41;98702.12;5569033;32;33742;-56
2023/01/16 14:38:00;;;;;;;36.03;24.00;;;;;;;7.73;89.87;98693.94;5569309;32;33664;-57
2023/01/16 14:55:14;;;;;;;31.40;21.80;;;;;;;7.85;93.07;98664.06;5568998;32;34020;-56
2023/01/16 14:58:26;;;;;;;37.28;24.33;;;;;;;7.86;90.23;98662.97;5569238;32;34479;-57
2023/01/16 15:05:06;;;;;;;34.10;22.45;;;;;;;7.80;100.00;98664.16;5569128;32;33961;-56
2023/01/16 15:08:12;;;;;;;30.70;20.00;;;;;;;7.68;96.16;98651.34;5559573;32;34312;-57
2023/01/16 15:11:33;;;;;;;33.63;23.95;;;;;;;7.70;91.40;98651.84;5549941;32;34363;-57
2023/01/16 15:14:37;;;;;;;32.67;23.00;;;;;;;7.65;93.63;98647.44;5549762;32;34365;-57
2023/01/16 15:21:57;;;;;;;32.58;21.40;;;;;;;7.76;92.53;98637.31;5549634;32;34364;-57
2023/01/16 15:24:53;;;;;;;30.67;21.10;;;;;;;7.76;95.37;98626.66;5549687;32;33834;-57
2023/01/16 15:28:10;;;;;;;32.00;21.17;;;;;;;7.66;96.27;98621.56;5549632;32;34471;-56
2023/01/16 15:31:44;;;;;;;31.50;21.05;;;;;;;7.70;94.60;98622.53;5549630;32;33587;-57
2023/01/16 15:34:46;;;;;;;28.48;20.12;;;;;;;7.75;100.00;98620.53;5542465;32;33478;-57
2023/01/16 15:37:52;;;;;;;32.60;22.23;;;;;;;7.80;96.23;98616.94;5549387;32;34339;-56
2023/01/16 15:40:56;;;;;;;31.00;21.33;;;;;;;7.65;93.79;98620.78;5549469;32;33584;-57
2023/01/16 15:47:59;;;;;;;33.05;21.67;;;;;;;7.58;93.06;98601.72;5549044;32;33626;-57
2023/01/16 15:51:07;;;;;;;31.77;20.60;;;;;;;7.59;94.00;98599.88;5549583;32;33783;-57
2023/01/16 15:54:14;;;;;;;29.00;20.10;;;;;;;7.58;90.65;98595.59;5549613;32;34050;-56
2023/01/16 15:57:18;;;;;;;40.63;25.80;;;;;;;7.60;91.83;98602.22;5549052;32;34394;-58
2023/01/16 16:00:24;;;;;;;34.97;24.00;;;;;;;7.65;94.41;98606.63;5549416;32;33670;-57
2023/01/16 16:03:37;;;;;;;32.63;22.17;;;;;;;7.60;92.98;98604.88;5549194;32;34465;-57
2023/01/16 16:06:40;;;;;;;32.97;23.27;;;;;;;7.64;92.09;98597.84;5549121;32;33655;-57
2023/01/16 16:09:46;;;;;;;31.52;21.27;;;;;;;7.62;99.41;98593.94;5549030;32;34364;-57
2023/01/16 16:12:48;;;;;;;32.23;21.60;;;;;;;8.08;100.00;98588.22;5548168;32;34466;-57
2023/01/16 16:19:32;;;;;;;32.20;22.87;;;;;;;7.88;98.98;98578.88;5549310;32;33838;-56
2023/01/16 16:22:49;;;;;;;34.97;22.25;;;;;;;7.80;100.00;98568.91;5548966;32;33617;-58
2023/01/16 16:25:56;;;;;;;34.60;23.67;;;;;;;7.68;95.80;98582.03;5549430;32;33403;-57
2023/01/16 16:28:59;;;;;;;34.60;23.50;;;;;;;7.54;96.30;98582.87;5549339;32;33767;-56
2023/01/16 16:32:10;;;;;;;36.72;23.45;;;;;;;7.68;95.69;98571.34;5549268;32;33606;-57
2023/01/16 16:35:20;;;;;;;33.97;21.92;;;;;;;7.67;98.50;98564.44;5548569;32;33397;-58
2023/01/16 16:38:46;;;;;;;32.05;21.17;;;;;;;7.65;92.36;98554.09;5549021;32;33693;-56
2023/01/16 16:45:19;;;;;;;38.40;23.62;;;;;;;7.88;94.42;98536.19;5548921;32;33908;-56
2023/01/16 16:48:27;;;;;;;32.50;21.85;;;;;;;7.76;94.33;98534.06;5549200;32;34420;-57
2023/01/16 16:51:31;;;;;;;33.85;23.85;;;;;;;7.76;91.87;98541.28;5548858;32;33890;-57
